createdAt,value
2018-05-14T00:01:21.558Z,13.50
2018-05-14T00:03:49.073Z,13.50
2018-05-14T00:06:16.586Z,13.50
2018-05-14T00:08:44.084Z,13.40
2018-05-14T00:11:12.349Z,13.40
2018-05-14T00:13:40.622Z,13.40
2018-05-14T00:16:08.122Z,13.30
2018-05-14T00:18:35.626Z,13.30
2018-05-14T00:21:03.918Z,13.30
2018-05-14T01:21:46.132Z,12.30
2018-05-14T02:19:19.985Z,11.90
2018-05-14T02:21:47.491Z,11.90
2018-05-14T02:24:15.005Z,11.90
2018-05-14T02:26:42.503Z,12.00
2018-05-14T02:29:10.779Z,12.10
2018-05-14T02:31:39.044Z,12.20
2018-05-14T02:34:07.314Z,12.20
2018-05-14T02:36:34.811Z,12.10
2018-05-14T02:39:02.315Z,12.10
2018-05-14T02:41:29.821Z,12.00
2018-05-14T02:43:57.319Z,11.90
2018-05-14T02:46:24.810Z,11.90
2018-05-14T02:48:52.310Z,11.90
2018-05-14T02:51:19.809Z,11.90
2018-05-14T02:53:47.313Z,11.80
2018-05-14T02:56:14.816Z,11.80
2018-05-14T02:58:42.317Z,11.80
2018-05-14T03:01:10.577Z,11.60
2018-05-14T03:03:38.084Z,11.60
2018-05-14T03:06:05.577Z,11.60
2018-05-14T03:08:33.071Z,11.70
2018-05-14T03:11:00.577Z,11.50
2018-05-14T03:13:28.079Z,11.30
2018-05-14T03:15:56.346Z,11.10
2018-05-14T03:18:23.846Z,11.10
2018-05-14T03:23:45.162Z,11.10
2018-05-14T03:26:13.425Z,11.00
2018-05-14T03:28:40.926Z,10.90
2018-05-14T03:31:08.433Z,11.00
2018-05-14T03:33:35.929Z,10.90
2018-05-14T03:36:03.437Z,11.30
2018-05-14T03:38:30.942Z,11.40
2018-05-14T03:40:58.436Z,11.50
2018-05-14T03:43:25.933Z,11.60
2018-05-14T03:45:53.429Z,11.60
2018-05-14T03:48:20.934Z,11.80
2018-05-14T03:50:48.437Z,11.80
2018-05-14T03:53:15.930Z,11.70
2018-05-14T03:55:43.429Z,11.50
2018-05-14T03:58:22.672Z,11.40
2018-05-14T04:04:02.658Z,11.30
2018-05-14T04:06:37.545Z,11.30
2018-05-14T04:09:05.070Z,11.40
2018-05-14T04:11:32.571Z,11.50
2018-05-14T04:17:01.231Z,11.70
2018-05-14T04:22:23.479Z,11.80
2018-05-14T04:24:50.990Z,11.80
2018-05-14T04:27:18.506Z,11.90
2018-05-14T04:29:46.001Z,12.00
2018-05-14T04:32:13.508Z,12.10
2018-05-14T04:34:41.006Z,12.30
2018-05-14T04:37:08.505Z,12.40
2018-05-14T04:39:36.019Z,12.60
2018-05-14T04:42:04.293Z,12.60
2018-05-14T04:44:31.789Z,12.60
2018-05-14T04:46:59.280Z,12.60
2018-05-14T04:49:26.773Z,12.70
2018-05-14T04:51:54.297Z,12.90
2018-05-14T04:54:22.565Z,12.90
2018-05-14T04:56:50.629Z,13.10
2018-05-14T04:59:19.021Z,13.20
2018-05-14T05:01:46.873Z,13.30
2018-05-14T05:04:14.368Z,13.40
2018-05-14T05:06:41.866Z,13.40
2018-05-14T05:09:09.365Z,13.50
2018-05-14T05:11:36.866Z,13.60
2018-05-14T05:14:04.365Z,13.70
2018-05-14T05:16:31.865Z,13.80
2018-05-14T05:19:12.433Z,13.90
2018-05-14T05:21:46.686Z,14.20
2018-05-14T05:27:07.674Z,14.20
2018-05-14T05:29:35.169Z,14.40
2018-05-14T05:32:02.665Z,14.40
2018-05-14T05:34:30.193Z,14.60
2018-05-14T05:36:57.690Z,14.60
2018-05-14T05:39:25.200Z,14.70
2018-05-14T05:41:52.698Z,14.80
2018-05-14T05:44:20.200Z,14.80
2018-05-14T05:46:47.693Z,14.80
2018-05-14T05:49:15.188Z,14.90
2018-05-14T05:51:42.687Z,15.00
2018-05-14T05:54:10.189Z,15.10
2018-05-14T05:56:38.458Z,15.30
2018-05-14T05:59:05.959Z,15.30
2018-05-14T06:01:33.454Z,15.30
2018-05-14T06:04:00.954Z,15.50
2018-05-14T06:06:28.449Z,15.60
2018-05-14T06:08:55.945Z,15.70
2018-05-14T06:11:23.449Z,15.80
2018-05-14T06:19:38.825Z,16.10
2018-05-14T06:22:07.092Z,16.30
2018-05-14T06:24:34.598Z,16.30
2018-05-14T06:27:02.100Z,16.40
2018-05-14T06:29:29.593Z,16.50
2018-05-14T06:31:57.092Z,16.60
2018-05-14T06:34:24.595Z,16.70
2018-05-14T06:36:52.870Z,16.70
2018-05-14T06:39:20.373Z,16.70
2018-05-14T06:41:47.881Z,16.70
2018-05-14T06:44:15.394Z,16.80
2018-05-14T06:46:42.897Z,16.90
2018-05-14T06:49:10.402Z,17.10
2018-05-14T06:51:37.904Z,17.10
2018-05-14T06:54:05.409Z,17.20
2018-05-14T06:56:32.912Z,17.30
2018-05-14T06:59:00.414Z,17.30
2018-05-14T07:01:28.686Z,17.50
2018-05-14T07:03:56.963Z,17.60
2018-05-14T07:06:25.223Z,17.80
2018-05-14T07:08:52.729Z,17.80
2018-05-14T07:11:20.229Z,18.00
2018-05-14T07:13:47.728Z,18.10
2018-05-14T07:16:15.989Z,18.20
2018-05-14T07:18:44.063Z,18.20
2018-05-14T08:13:15.181Z,20.60
2018-05-14T08:15:56.464Z,20.90
2018-05-14T08:21:24.661Z,21.00
2018-05-14T08:23:52.160Z,21.00
2018-05-14T08:26:19.661Z,21.10
2018-05-14T08:28:47.158Z,21.20
2018-05-14T08:31:14.664Z,21.30
2018-05-14T08:33:42.164Z,21.50
2018-05-14T08:36:09.665Z,21.60
2018-05-14T08:38:37.156Z,21.40
2018-05-14T08:41:04.646Z,21.60
2018-05-14T08:43:32.145Z,22.00
2018-05-14T08:45:59.634Z,22.10
2018-05-14T08:48:28.417Z,22.20
2018-05-14T08:50:55.922Z,22.20
2018-05-14T08:53:23.419Z,22.40
2018-05-14T08:55:50.926Z,22.60
2018-05-14T08:58:18.431Z,22.60
2018-05-14T09:00:45.944Z,22.50
2018-05-14T09:03:13.448Z,22.70
2018-05-14T09:05:40.950Z,22.80
2018-05-14T09:08:08.451Z,22.80
2018-05-14T09:10:35.948Z,23.00
2018-05-14T09:18:51.317Z,23.40
2018-05-14T09:21:21.407Z,23.60
2018-05-14T10:13:02.705Z,26.90
2018-05-14T10:15:30.216Z,27.60
2018-05-14T10:17:57.715Z,27.80
2018-05-14T10:20:32.533Z,28.70
2018-05-14T10:23:00.057Z,28.70
2018-05-14T10:25:27.558Z,29.10
2018-05-14T10:27:55.384Z,29.40
2018-05-14T10:30:22.876Z,29.50
2018-05-14T10:32:50.370Z,29.40
2018-05-14T10:35:17.861Z,29.30
2018-05-14T10:37:45.364Z,29.40
2018-05-14T10:40:12.863Z,29.50
2018-05-14T10:42:40.360Z,29.80
2018-05-14T10:45:07.858Z,29.60
2018-05-14T10:47:35.365Z,29.00
2018-05-14T10:50:02.866Z,29.40
2018-05-14T10:52:31.128Z,30.00
2018-05-14T10:54:58.621Z,29.90
2018-05-14T10:57:26.116Z,29.70
2018-05-14T10:59:53.614Z,30.10
2018-05-14T11:02:21.114Z,30.20
2018-05-14T11:04:48.616Z,30.30
2018-05-14T11:07:16.110Z,30.30
2018-05-14T11:09:44.383Z,29.80
2018-05-14T11:12:12.658Z,29.30
2018-05-14T11:23:21.258Z,29.80
2018-05-14T11:25:48.790Z,30.10
2018-05-14T11:28:17.062Z,30.90
2018-05-14T11:30:45.337Z,30.50
2018-05-14T11:33:13.606Z,29.80
2018-05-14T11:35:41.113Z,29.80
2018-05-14T11:38:08.613Z,30.10
2018-05-14T11:40:36.109Z,29.80
2018-05-14T11:43:03.610Z,29.70
2018-05-14T11:45:31.110Z,29.50
2018-05-14T11:47:59.373Z,29.90
2018-05-14T11:50:26.865Z,29.90
2018-05-14T11:52:54.373Z,29.80
2018-05-14T11:55:21.872Z,30.00
2018-05-14T11:57:49.368Z,29.80
2018-05-14T12:00:16.861Z,30.00
2018-05-14T12:02:44.384Z,30.40
2018-05-14T12:05:11.880Z,31.30
2018-05-14T12:07:39.381Z,31.80
2018-05-14T12:10:07.029Z,31.10
2018-05-14T12:12:34.408Z,31.00
2018-05-14T12:17:55.503Z,31.10
2018-05-14T12:20:23.009Z,31.00
2018-05-14T12:23:05.129Z,31.00
2018-05-14T12:25:32.647Z,30.90
2018-05-14T12:28:00.142Z,30.90
2018-05-14T12:30:27.649Z,30.40
2018-05-14T12:32:55.909Z,31.20
2018-05-14T12:35:23.401Z,31.20
2018-05-14T12:37:50.902Z,30.70
2018-05-14T12:40:18.402Z,31.20
2018-05-14T12:42:45.904Z,30.50
2018-05-14T12:45:13.401Z,30.70
2018-05-14T12:47:40.897Z,30.70
2018-05-14T12:50:08.397Z,30.80
2018-05-14T12:52:35.901Z,30.80
2018-05-14T12:55:03.395Z,30.90
2018-05-14T12:57:30.898Z,31.30
2018-05-14T12:59:58.392Z,31.90
2018-05-14T13:02:25.895Z,31.40
2018-05-14T13:04:53.388Z,31.20
2018-05-14T13:07:20.880Z,31.70
2018-05-14T13:09:48.420Z,31.80
2018-05-14T14:15:51.259Z,30.50
2018-05-14T14:18:18.757Z,31.20
2018-05-14T14:20:46.260Z,30.60
2018-05-14T14:23:13.896Z,30.60
2018-05-14T14:25:41.290Z,31.10
2018-05-14T14:28:08.790Z,29.90
2018-05-14T14:30:36.293Z,29.70
2018-05-14T14:33:04.564Z,29.70
2018-05-14T14:35:32.837Z,30.20
2018-05-14T14:38:01.101Z,29.80
2018-05-14T14:40:28.609Z,29.80
2018-05-14T14:42:56.108Z,30.00
2018-05-14T14:45:23.609Z,30.50
2018-05-14T14:47:51.116Z,30.30
2018-05-14T14:50:18.627Z,30.10
2018-05-14T14:52:46.136Z,30.10
2018-05-14T14:55:13.643Z,30.00
2018-05-14T14:57:41.152Z,30.10
2018-05-14T15:00:08.654Z,29.70
2018-05-14T15:02:36.922Z,29.70
2018-05-14T15:05:05.194Z,29.40
2018-05-14T15:07:33.463Z,29.80
2018-05-14T15:10:00.967Z,29.80
2018-05-14T15:12:28.465Z,29.80
2018-05-14T16:15:45.800Z,28.50
2018-05-14T16:21:07.305Z,28.20
2018-05-14T17:18:40.613Z,25.60
2018-05-14T17:27:03.626Z,25.10
2018-05-14T17:29:31.129Z,24.90
2018-05-14T17:31:58.637Z,24.90
2018-05-14T17:34:26.145Z,24.70
2018-05-14T17:36:53.648Z,24.40
2018-05-14T17:39:21.150Z,24.10
2018-05-14T17:41:49.422Z,24.20
2018-05-14T17:44:17.695Z,23.90
2018-05-14T17:46:45.961Z,23.70
2018-05-14T17:49:13.913Z,23.60
2018-05-14T17:51:41.454Z,23.60
2018-05-14T17:54:08.958Z,23.50
2018-05-14T17:56:37.225Z,23.20
2018-05-14T17:59:04.731Z,23.20
2018-05-14T18:01:32.229Z,22.90
2018-05-14T18:03:59.734Z,22.80
2018-05-14T18:06:27.272Z,22.60
2018-05-14T18:08:55.548Z,22.30
2018-05-14T18:11:23.898Z,22.10
2018-05-14T18:13:52.108Z,21.90
2018-05-14T18:16:20.382Z,21.70
2018-05-14T18:18:48.650Z,21.50
2018-05-14T18:27:08.971Z,21.00
2018-05-14T18:29:36.466Z,21.00
2018-05-14T18:32:04.769Z,20.70
2018-05-14T18:34:37.902Z,20.50
2018-05-14T18:37:05.424Z,20.40
2018-05-14T18:39:32.935Z,20.20
2018-05-14T18:42:01.197Z,19.90
2018-05-14T18:44:33.622Z,19.90
2018-05-14T18:47:01.125Z,19.90
2018-05-14T18:49:28.638Z,19.70
2018-05-14T18:51:56.201Z,19.60
2018-05-14T18:54:23.660Z,19.40
2018-05-14T18:56:51.165Z,19.30
2018-05-14T18:59:18.674Z,19.20
2018-05-14T19:01:46.172Z,19.10
2018-05-14T19:04:13.673Z,19.00
2018-05-14T19:06:41.175Z,19.00
2018-05-14T19:09:09.459Z,18.70
2018-05-14T19:11:42.605Z,18.70
2018-05-14T19:14:10.129Z,18.70
2018-05-14T19:16:44.145Z,18.50
2018-05-14T19:24:58.836Z,18.40
2018-05-14T19:27:26.350Z,18.30
2018-05-14T19:29:53.854Z,18.20
2018-05-14T19:32:21.358Z,18.10
2018-05-14T19:34:54.405Z,18.10
2018-05-14T19:37:21.912Z,18.00
2018-05-14T19:39:55.045Z,17.90
2018-05-14T19:42:22.541Z,17.70
2018-05-14T19:44:50.813Z,17.50
2018-05-14T19:47:19.081Z,17.50
2018-05-14T19:49:47.402Z,17.40
2018-05-14T19:52:15.649Z,17.30
2018-05-14T19:54:43.930Z,17.10
2018-05-14T19:57:11.445Z,17.10
2018-05-14T19:59:38.949Z,17.10
2018-05-14T20:02:06.450Z,17.00
2018-05-14T20:04:33.949Z,17.00
2018-05-14T20:07:02.221Z,16.90
2018-05-14T20:09:30.501Z,16.80
2018-05-14T20:11:58.770Z,16.80
2018-05-14T20:14:26.288Z,16.80
2018-05-14T20:16:53.805Z,16.80
2018-05-14T20:19:22.113Z,16.60
2018-05-14T20:27:37.573Z,16.50
2018-05-14T20:30:05.074Z,16.40
2018-05-14T20:32:32.610Z,16.40
2018-05-14T20:35:00.108Z,16.40
2018-05-14T20:37:27.656Z,16.20
2018-05-14T20:39:55.894Z,16.00
2018-05-14T20:42:23.389Z,15.90
2018-05-14T20:44:50.881Z,15.90
2018-05-14T20:47:18.390Z,15.80
2018-05-14T20:49:45.889Z,15.80
2018-05-14T20:52:13.445Z,15.70
2018-05-14T20:54:40.901Z,15.80
2018-05-14T20:57:08.400Z,15.80
2018-05-14T20:59:35.897Z,15.70
2018-05-14T21:02:03.389Z,15.60
2018-05-14T21:04:30.891Z,15.60
2018-05-14T21:06:59.165Z,15.50
2018-05-14T21:09:26.669Z,15.50
2018-05-14T21:11:54.169Z,15.40
2018-05-14T21:17:15.036Z,15.30
2018-05-14T21:19:42.537Z,15.30
2018-05-14T21:22:14.585Z,15.00
2018-05-14T21:24:42.091Z,15.10
2018-05-14T21:27:09.593Z,15.10
2018-05-14T21:29:37.103Z,15.10
2018-05-14T21:32:04.601Z,15.10
2018-05-14T21:34:32.107Z,15.00
2018-05-14T21:36:59.618Z,14.90
2018-05-14T21:39:27.126Z,14.90
2018-05-14T21:41:54.629Z,14.80
2018-05-14T21:44:22.133Z,14.80
2018-05-14T21:46:49.633Z,14.70
2018-05-14T21:49:17.905Z,14.70
2018-05-14T21:51:46.167Z,14.70
2018-05-14T21:54:13.664Z,14.70
2018-05-14T21:56:41.162Z,14.60
2018-05-14T21:59:08.673Z,14.60
2018-05-14T22:01:36.176Z,14.60
2018-05-14T22:04:03.677Z,14.40
2018-05-14T22:06:31.941Z,14.50
2018-05-14T22:08:59.449Z,14.50
2018-05-14T22:11:26.948Z,14.50
2018-05-14T22:16:48.305Z,14.20
2018-05-14T23:14:16.473Z,13.10
2018-05-14T23:16:43.984Z,13.10
2018-05-14T23:22:25.733Z,12.90
